sensor_id;sensor_type;location;lat;lon;timestamp;P1;durP1;ratioP1;P2;durP2;ratioP2
29812;SDS011;16707;48.106;11.548;2023-07-22T00:00:35;7.40;;;4.28;;
29812;SDS011;16707;48.106;11.548;2023-07-22T00:03:02;5.50;;;4.07;;
29812;SDS011;16707;48.106;11.548;2023-07-22T00:05:29;4.38;;;3.40;;
29812;SDS011;16707;48.106;11.548;2023-07-22T00:07:56;7.47;;;4.07;;
29812;SDS011;16707;48.106;11.548;2023-07-22T00:10:23;6.90;;;4.13;;
29812;SDS011;16707;48.106;11.548;2023-07-22T00:12:50;5.35;;;4.43;;
29812;SDS011;16707;48.106;11.548;2023-07-22T00:15:17;5.07;;;4.15;;
29812;SDS011;16707;48.106;11.548;2023-07-22T00:17:46;5.72;;;4.00;;
29812;SDS011;16707;48.106;11.548;2023-07-22T00:20:14;6.32;;;5.00;;
29812;SDS011;16707;48.106;11.548;2023-07-22T00:22:41;5.47;;;4.40;;
29812;SDS011;16707;48.106;11.548;2023-07-22T00:25:09;7.07;;;4.57;;
29812;SDS011;16707;48.106;11.548;2023-07-22T00:27:37;6.38;;;4.70;;
29812;SDS011;16707;48.106;11.548;2023-07-22T00:30:04;6.00;;;5.15;;
29812;SDS011;16707;48.106;11.548;2023-07-22T00:32:32;6.68;;;5.00;;
29812;SDS011;16707;48.106;11.548;2023-07-22T00:35:00;7.38;;;4.70;;
29812;SDS011;16707;48.106;11.548;2023-07-22T00:37:27;8.70;;;4.45;;
29812;SDS011;16707;48.106;11.548;2023-07-22T00:39:54;7.85;;;5.15;;
29812;SDS011;16707;48.106;11.548;2023-07-22T00:42:21;7.03;;;4.78;;
29812;SDS011;16707;48.106;11.548;2023-07-22T00:44:49;5.57;;;4.88;;
29812;SDS011;16707;48.106;11.548;2023-07-22T00:47:16;6.25;;;5.07;;
29812;SDS011;16707;48.106;11.548;2023-07-22T00:49:47;6.78;;;4.38;;
29812;SDS011;16707;48.106;11.548;2023-07-22T00:52:16;6.40;;;4.88;;
29812;SDS011;16707;48.106;11.548;2023-07-22T00:54:43;6.20;;;4.53;;
29812;SDS011;16707;48.106;11.548;2023-07-22T00:57:10;6.47;;;4.68;;
29812;SDS011;16707;48.106;11.548;2023-07-22T00:59:38;6.50;;;4.53;;
29812;SDS011;16707;48.106;11.548;2023-07-22T01:02:05;7.05;;;4.68;;
29812;SDS011;16707;48.106;11.548;2023-07-22T01:04:33;5.22;;;4.45;;
29812;SDS011;16707;48.106;11.548;2023-07-22T01:07:00;6.38;;;4.45;;
29812;SDS011;16707;48.106;11.548;2023-07-22T01:09:35;5.28;;;4.38;;
29812;SDS011;16707;48.106;11.548;2023-07-22T01:12:03;5.63;;;4.43;;
29812;SDS011;16707;48.106;11.548;2023-07-22T01:14:32;7.03;;;4.95;;
29812;SDS011;16707;48.106;11.548;2023-07-22T01:16:59;6.28;;;4.70;;
29812;SDS011;16707;48.106;11.548;2023-07-22T01:19:27;5.32;;;4.45;;
29812;SDS011;16707;48.106;11.548;2023-07-22T01:21:55;5.95;;;4.55;;
29812;SDS011;16707;48.106;11.548;2023-07-22T01:24:25;6.13;;;5.07;;
29812;SDS011;16707;48.106;11.548;2023-07-22T01:26:52;5.28;;;4.65;;
29812;SDS011;16707;48.106;11.548;2023-07-22T01:29:19;6.50;;;5.13;;
29812;SDS011;16707;48.106;11.548;2023-07-22T01:31:47;5.70;;;5.10;;
29812;SDS011;16707;48.106;11.548;2023-07-22T01:34:17;6.43;;;5.03;;
29812;SDS011;16707;48.106;11.548;2023-07-22T01:36:44;6.78;;;4.93;;
29812;SDS011;16707;48.106;11.548;2023-07-22T01:39:12;6.22;;;4.82;;
29812;SDS011;16707;48.106;11.548;2023-07-22T01:41:41;6.50;;;5.15;;
29812;SDS011;16707;48.106;11.548;2023-07-22T01:44:08;7.05;;;5.45;;
29812;SDS011;16707;48.106;11.548;2023-07-22T01:46:36;7.05;;;5.75;;
29812;SDS011;16707;48.106;11.548;2023-07-22T01:49:04;6.82;;;6.00;;
29812;SDS011;16707;48.106;11.548;2023-07-22T01:51:35;6.82;;;6.03;;
29812;SDS011;16707;48.106;11.548;2023-07-22T01:54:02;7.72;;;5.90;;
29812;SDS011;16707;48.106;11.548;2023-07-22T01:56:30;8.43;;;6.30;;
29812;SDS011;16707;48.106;11.548;2023-07-22T01:58:58;9.90;;;6.28;;
29812;SDS011;16707;48.106;11.548;2023-07-22T02:01:25;6.45;;;5.50;;
29812;SDS011;16707;48.106;11.548;2023-07-22T02:03:53;7.25;;;5.75;;
29812;SDS011;16707;48.106;11.548;2023-07-22T02:06:20;6.63;;;5.00;;
29812;SDS011;16707;48.106;11.548;2023-07-22T02:08:47;7.25;;;5.72;;
29812;SDS011;16707;48.106;11.548;2023-07-22T02:11:15;6.50;;;5.30;;
29812;SDS011;16707;48.106;11.548;2023-07-22T02:13:42;6.45;;;5.45;;
29812;SDS011;16707;48.106;11.548;2023-07-22T02:16:10;6.22;;;4.82;;
29812;SDS011;16707;48.106;11.548;2023-07-22T02:18:38;5.60;;;4.75;;
29812;SDS011;16707;48.106;11.548;2023-07-22T02:21:05;7.22;;;5.03;;
29812;SDS011;16707;48.106;11.548;2023-07-22T02:23:32;5.78;;;4.78;;
29812;SDS011;16707;48.106;11.548;2023-07-22T02:25:59;5.47;;;4.88;;
29812;SDS011;16707;48.106;11.548;2023-07-22T02:28:27;4.90;;;4.43;;
29812;SDS011;16707;48.106;11.548;2023-07-22T02:30:54;5.63;;;4.35;;
29812;SDS011;16707;48.106;11.548;2023-07-22T02:33:23;5.07;;;4.45;;
29812;SDS011;16707;48.106;11.548;2023-07-22T02:35:50;4.47;;;4.00;;
29812;SDS011;16707;48.106;11.548;2023-07-22T02:38:17;5.45;;;4.47;;
29812;SDS011;16707;48.106;11.548;2023-07-22T02:40:44;6.57;;;4.47;;
29812;SDS011;16707;48.106;11.548;2023-07-22T02:43:11;6.18;;;5.07;;
29812;SDS011;16707;48.106;11.548;2023-07-22T02:45:38;7.28;;;4.95;;
29812;SDS011;16707;48.106;11.548;2023-07-22T02:48:05;6.72;;;4.95;;
29812;SDS011;16707;48.106;11.548;2023-07-22T02:50:34;5.80;;;4.45;;
29812;SDS011;16707;48.106;11.548;2023-07-22T02:53:01;5.88;;;5.10;;
29812;SDS011;16707;48.106;11.548;2023-07-22T02:55:28;4.85;;;4.28;;
29812;SDS011;16707;48.106;11.548;2023-07-22T02:57:55;5.03;;;4.20;;
29812;SDS011;16707;48.106;11.548;2023-07-22T03:00:22;5.50;;;4.25;;
29812;SDS011;16707;48.106;11.548;2023-07-22T03:02:49;5.68;;;4.15;;
29812;SDS011;16707;48.106;11.548;2023-07-22T03:05:17;8.20;;;4.82;;
29812;SDS011;16707;48.106;11.548;2023-07-22T03:07:46;6.72;;;4.00;;
29812;SDS011;16707;48.106;11.548;2023-07-22T03:10:13;5.00;;;3.95;;
29812;SDS011;16707;48.106;11.548;2023-07-22T03:12:40;6.03;;;4.40;;
29812;SDS011;16707;48.106;11.548;2023-07-22T03:15:07;5.95;;;4.45;;
29812;SDS011;16707;48.106;11.548;2023-07-22T03:17:37;5.15;;;4.03;;
29812;SDS011;16707;48.106;11.548;2023-07-22T03:20:07;4.72;;;4.18;;
29812;SDS011;16707;48.106;11.548;2023-07-22T03:22:39;6.28;;;4.47;;
29812;SDS011;16707;48.106;11.548;2023-07-22T03:25:08;4.07;;;3.53;;
29812;SDS011;16707;48.106;11.548;2023-07-22T03:27:35;5.95;;;4.50;;
29812;SDS011;16707;48.106;11.548;2023-07-22T03:30:03;5.13;;;4.00;;
29812;SDS011;16707;48.106;11.548;2023-07-22T03:32:32;5.20;;;4.38;;
29812;SDS011;16707;48.106;11.548;2023-07-22T03:34:59;5.20;;;4.70;;
29812;SDS011;16707;48.106;11.548;2023-07-22T03:37:27;6.47;;;5.13;;
29812;SDS011;16707;48.106;11.548;2023-07-22T03:39:54;5.50;;;4.72;;
29812;SDS011;16707;48.106;11.548;2023-07-22T03:42:23;7.25;;;5.13;;
29812;SDS011;16707;48.106;11.548;2023-07-22T03:44:50;5.97;;;5.10;;
29812;SDS011;16707;48.106;11.548;2023-07-22T03:47:16;5.93;;;4.57;;
29812;SDS011;16707;48.106;11.548;2023-07-22T03:49:44;6.80;;;4.70;;
29812;SDS011;16707;48.106;11.548;2023-07-22T03:52:11;4.70;;;4.20;;
29812;SDS011;16707;48.106;11.548;2023-07-22T03:54:39;5.68;;;4.75;;
29812;SDS011;16707;48.106;11.548;2023-07-22T03:57:06;6.40;;;4.28;;
29812;SDS011;16707;48.106;11.548;2023-07-22T03:59:34;5.95;;;4.00;;
29812;SDS011;16707;48.106;11.548;2023-07-22T04:02:01;5.47;;;4.43;;
29812;SDS011;16707;48.106;11.548;2023-07-22T04:04:28;4.70;;;4.20;;
29812;SDS011;16707;48.106;11.548;2023-07-22T04:06:54;4.43;;;4.00;;
29812;SDS011;16707;48.106;11.548;2023-07-22T04:09:21;5.15;;;4.22;;
29812;SDS011;16707;48.106;11.548;2023-07-22T04:11:48;5.47;;;4.82;;
29812;SDS011;16707;48.106;11.548;2023-07-22T04:14:15;6.07;;;4.20;;
29812;SDS011;16707;48.106;11.548;2023-07-22T04:16:43;5.82;;;4.20;;
29812;SDS011;16707;48.106;11.548;2023-07-22T04:19:10;8.25;;;4.65;;
29812;SDS011;16707;48.106;11.548;2023-07-22T04:21:37;5.65;;;4.80;;
29812;SDS011;16707;48.106;11.548;2023-07-22T04:24:04;5.78;;;3.92;;
29812;SDS011;16707;48.106;11.548;2023-07-22T04:26:32;4.85;;;4.13;;
29812;SDS011;16707;48.106;11.548;2023-07-22T04:28:59;5.45;;;3.60;;
29812;SDS011;16707;48.106;11.548;2023-07-22T04:31:26;4.65;;;3.80;;
29812;SDS011;16707;48.106;11.548;2023-07-22T04:33:54;4.57;;;3.80;;
29812;SDS011;16707;48.106;11.548;2023-07-22T04:36:23;4.78;;;3.80;;
29812;SDS011;16707;48.106;11.548;2023-07-22T04:38:50;5.90;;;4.05;;
29812;SDS011;16707;48.106;11.548;2023-07-22T04:41:17;4.50;;;3.08;;
29812;SDS011;16707;48.106;11.548;2023-07-22T04:43:44;3.75;;;3.30;;
29812;SDS011;16707;48.106;11.548;2023-07-22T04:46:11;4.68;;;3.47;;
29812;SDS011;16707;48.106;11.548;2023-07-22T04:48:38;3.78;;;3.13;;
29812;SDS011;16707;48.106;11.548;2023-07-22T04:51:06;3.53;;;2.47;;
29812;SDS011;16707;48.106;11.548;2023-07-22T04:53:34;2.70;;;2.08;;
29812;SDS011;16707;48.106;11.548;2023-07-22T04:56:01;4.07;;;2.47;;
29812;SDS011;16707;48.106;11.548;2023-07-22T04:58:28;5.13;;;2.70;;
29812;SDS011;16707;48.106;11.548;2023-07-22T05:00:55;4.53;;;2.67;;
29812;SDS011;16707;48.106;11.548;2023-07-22T05:03:22;3.08;;;2.30;;
29812;SDS011;16707;48.106;11.548;2023-07-22T05:05:50;2.70;;;2.30;;
29812;SDS011;16707;48.106;11.548;2023-07-22T05:08:18;3.63;;;2.65;;
29812;SDS011;16707;48.106;11.548;2023-07-22T05:10:46;3.35;;;2.35;;
29812;SDS011;16707;48.106;11.548;2023-07-22T05:13:13;2.67;;;2.33;;
29812;SDS011;16707;48.106;11.548;2023-07-22T05:15:40;3.17;;;2.30;;
29812;SDS011;16707;48.106;11.548;2023-07-22T05:18:07;3.33;;;2.28;;
29812;SDS011;16707;48.106;11.548;2023-07-22T05:20:34;3.05;;;2.30;;
29812;SDS011;16707;48.106;11.548;2023-07-22T05:23:01;2.58;;;2.30;;
29812;SDS011;16707;48.106;11.548;2023-07-22T05:25:29;4.18;;;2.33;;
29812;SDS011;16707;48.106;11.548;2023-07-22T05:27:56;3.72;;;2.90;;
29812;SDS011;16707;48.106;11.548;2023-07-22T05:30:23;3.50;;;2.65;;
29812;SDS011;16707;48.106;11.548;2023-07-22T05:32:51;3.63;;;2.50;;
29812;SDS011;16707;48.106;11.548;2023-07-22T05:35:18;2.45;;;2.17;;
29812;SDS011;16707;48.106;11.548;2023-07-22T05:37:45;2.63;;;1.92;;
29812;SDS011;16707;48.106;11.548;2023-07-22T05:40:12;3.80;;;2.63;;
29812;SDS011;16707;48.106;11.548;2023-07-22T05:42:41;3.03;;;2.42;;
29812;SDS011;16707;48.106;11.548;2023-07-22T05:45:08;3.22;;;2.60;;
29812;SDS011;16707;48.106;11.548;2023-07-22T05:47:38;3.97;;;2.70;;
29812;SDS011;16707;48.106;11.548;2023-07-22T05:50:06;2.95;;;2.45;;
29812;SDS011;16707;48.106;11.548;2023-07-22T05:52:34;3.47;;;2.65;;
29812;SDS011;16707;48.106;11.548;2023-07-22T05:55:01;5.55;;;2.83;;
29812;SDS011;16707;48.106;11.548;2023-07-22T05:57:28;4.20;;;3.13;;
29812;SDS011;16707;48.106;11.548;2023-07-22T05:59:56;3.22;;;2.85;;
29812;SDS011;16707;48.106;11.548;2023-07-22T06:02:23;4.50;;;2.50;;
29812;SDS011;16707;48.106;11.548;2023-07-22T06:04:50;3.28;;;2.13;;
29812;SDS011;16707;48.106;11.548;2023-07-22T06:07:17;2.05;;;1.85;;
29812;SDS011;16707;48.106;11.548;2023-07-22T06:09:44;3.78;;;2.38;;
29812;SDS011;16707;48.106;11.548;2023-07-22T06:12:11;2.50;;;2.20;;
29812;SDS011;16707;48.106;11.548;2023-07-22T06:14:38;11.43;;;4.93;;
29812;SDS011;16707;48.106;11.548;2023-07-22T06:17:06;5.93;;;2.80;;
29812;SDS011;16707;48.106;11.548;2023-07-22T06:19:33;4.07;;;2.28;;
29812;SDS011;16707;48.106;11.548;2023-07-22T06:22:00;3.20;;;2.10;;
29812;SDS011;16707;48.106;11.548;2023-07-22T06:24:27;4.18;;;2.40;;
29812;SDS011;16707;48.106;11.548;2023-07-22T06:26:54;3.35;;;2.38;;
29812;SDS011;16707;48.106;11.548;2023-07-22T06:29:21;3.15;;;2.17;;
29812;SDS011;16707;48.106;11.548;2023-07-22T06:31:53;2.78;;;2.20;;
29812;SDS011;16707;48.106;11.548;2023-07-22T06:34:21;3.85;;;2.20;;
29812;SDS011;16707;48.106;11.548;2023-07-22T06:36:48;3.50;;;2.10;;
29812;SDS011;16707;48.106;11.548;2023-07-22T06:39:15;3.15;;;2.00;;
29812;SDS011;16707;48.106;11.548;2023-07-22T06:41:43;2.28;;;1.85;;
29812;SDS011;16707;48.106;11.548;2023-07-22T06:44:10;2.70;;;2.10;;
29812;SDS011;16707;48.106;11.548;2023-07-22T06:46:37;3.58;;;1.85;;
29812;SDS011;16707;48.106;11.548;2023-07-22T06:49:04;2.75;;;1.88;;
29812;SDS011;16707;48.106;11.548;2023-07-22T06:51:32;2.05;;;1.75;;
29812;SDS011;16707;48.106;11.548;2023-07-22T06:53:59;1.80;;;1.40;;
29812;SDS011;16707;48.106;11.548;2023-07-22T06:56:26;3.88;;;1.70;;
29812;SDS011;16707;48.106;11.548;2023-07-22T06:58:53;2.80;;;1.77;;
29812;SDS011;16707;48.106;11.548;2023-07-22T07:01:20;2.00;;;1.42;;
29812;SDS011;16707;48.106;11.548;2023-07-22T07:03:47;2.58;;;1.45;;
29812;SDS011;16707;48.106;11.548;2023-07-22T07:06:15;2.25;;;1.63;;
29812;SDS011;16707;48.106;11.548;2023-07-22T07:08:44;2.63;;;1.50;;
29812;SDS011;16707;48.106;11.548;2023-07-22T07:11:11;2.38;;;1.63;;
29812;SDS011;16707;48.106;11.548;2023-07-22T07:13:38;2.05;;;1.60;;
29812;SDS011;16707;48.106;11.548;2023-07-22T07:16:20;2.38;;;1.80;;
29812;SDS011;16707;48.106;11.548;2023-07-22T07:18:49;3.63;;;1.92;;
29812;SDS011;16707;48.106;11.548;2023-07-22T07:21:17;3.00;;;2.17;;
29812;SDS011;16707;48.106;11.548;2023-07-22T07:23:45;3.00;;;1.50;;
29812;SDS011;16707;48.106;11.548;2023-07-22T07:26:12;3.63;;;1.95;;
29812;SDS011;16707;48.106;11.548;2023-07-22T07:28:39;3.22;;;1.60;;
29812;SDS011;16707;48.106;11.548;2023-07-22T07:31:06;2.50;;;1.98;;
29812;SDS011;16707;48.106;11.548;2023-07-22T07:33:33;3.63;;;1.98;;
29812;SDS011;16707;48.106;11.548;2023-07-22T07:36:01;3.40;;;1.83;;
29812;SDS011;16707;48.106;11.548;2023-07-22T07:38:29;2.03;;;1.83;;
29812;SDS011;16707;48.106;11.548;2023-07-22T07:40:59;4.07;;;2.20;;
29812;SDS011;16707;48.106;11.548;2023-07-22T07:43:27;1.95;;;1.70;;
29812;SDS011;16707;48.106;11.548;2023-07-22T07:48:38;3.53;;;2.17;;
29812;SDS011;16707;48.106;11.548;2023-07-22T07:51:06;4.18;;;1.92;;
29812;SDS011;16707;48.106;11.548;2023-07-22T07:53:32;3.65;;;1.65;;
29812;SDS011;16707;48.106;11.548;2023-07-22T07:56:01;3.17;;;1.80;;
29812;SDS011;16707;48.106;11.548;2023-07-22T07:58:28;2.70;;;1.70;;
29812;SDS011;16707;48.106;11.548;2023-07-22T08:00:55;3.85;;;2.25;;
29812;SDS011;16707;48.106;11.548;2023-07-22T08:03:23;2.78;;;1.30;;
29812;SDS011;16707;48.106;11.548;2023-07-22T08:05:49;2.92;;;1.58;;
29812;SDS011;16707;48.106;11.548;2023-07-22T08:08:17;3.33;;;1.73;;
29812;SDS011;16707;48.106;11.548;2023-07-22T08:10:44;1.85;;;1.70;;
29812;SDS011;16707;48.106;11.548;2023-07-22T08:13:12;3.53;;;1.95;;
29812;SDS011;16707;48.106;11.548;2023-07-22T08:15:39;2.55;;;1.83;;
29812;SDS011;16707;48.106;11.548;2023-07-22T08:18:06;4.63;;;2.38;;
29812;SDS011;16707;48.106;11.548;2023-07-22T08:20:33;2.60;;;1.52;;
29812;SDS011;16707;48.106;11.548;2023-07-22T08:23:00;2.13;;;1.63;;
29812;SDS011;16707;48.106;11.548;2023-07-22T08:25:27;3.03;;;1.85;;
29812;SDS011;16707;48.106;11.548;2023-07-22T08:27:54;3.35;;;1.70;;
29812;SDS011;16707;48.106;11.548;2023-07-22T08:30:23;3.08;;;1.23;;
29812;SDS011;16707;48.106;11.548;2023-07-22T08:32:50;2.85;;;1.67;;
29812;SDS011;16707;48.106;11.548;2023-07-22T08:35:17;2.22;;;1.38;;
29812;SDS011;16707;48.106;11.548;2023-07-22T08:37:44;2.35;;;1.70;;
29812;SDS011;16707;48.106;11.548;2023-07-22T08:40:12;2.10;;;1.45;;
29812;SDS011;16707;48.106;11.548;2023-07-22T08:42:39;2.28;;;1.33;;
29812;SDS011;16707;48.106;11.548;2023-07-22T08:45:08;2.28;;;1.50;;
29812;SDS011;16707;48.106;11.548;2023-07-22T08:47:38;2.90;;;1.70;;
29812;SDS011;16707;48.106;11.548;2023-07-22T08:50:14;3.55;;;1.55;;
29812;SDS011;16707;48.106;11.548;2023-07-22T08:52:44;2.10;;;1.20;;
29812;SDS011;16707;48.106;11.548;2023-07-22T08:55:12;4.00;;;1.40;;
29812;SDS011;16707;48.106;11.548;2023-07-22T08:57:40;2.42;;;1.58;;
29812;SDS011;16707;48.106;11.548;2023-07-22T09:00:09;1.92;;;1.45;;
29812;SDS011;16707;48.106;11.548;2023-07-22T09:02:36;3.67;;;1.70;;
29812;SDS011;16707;48.106;11.548;2023-07-22T09:05:06;1.80;;;1.55;;
29812;SDS011;16707;48.106;11.548;2023-07-22T09:07:34;2.70;;;1.60;;
29812;SDS011;16707;48.106;11.548;2023-07-22T09:10:01;2.70;;;1.60;;
29812;SDS011;16707;48.106;11.548;2023-07-22T09:12:29;3.28;;;1.63;;
29812;SDS011;16707;48.106;11.548;2023-07-22T09:14:57;1.60;;;1.13;;
29812;SDS011;16707;48.106;11.548;2023-07-22T09:17:25;2.60;;;1.35;;
29812;SDS011;16707;48.106;11.548;2023-07-22T09:19:54;1.70;;;1.30;;
29812;SDS011;16707;48.106;11.548;2023-07-22T09:22:24;1.77;;;1.20;;
29812;SDS011;16707;48.106;11.548;2023-07-22T09:24:52;1.35;;;1.10;;
29812;SDS011;16707;48.106;11.548;2023-07-22T09:27:32;1.60;;;1.00;;
29812;SDS011;16707;48.106;11.548;2023-07-22T09:30:00;2.40;;;1.40;;
29812;SDS011;16707;48.106;11.548;2023-07-22T09:32:34;1.30;;;1.20;;
29812;SDS011;16707;48.106;11.548;2023-07-22T09:35:04;1.90;;;1.35;;
29812;SDS011;16707;48.106;11.548;2023-07-22T09:37:37;2.15;;;1.30;;
29812;SDS011;16707;48.106;11.548;2023-07-22T09:40:13;1.73;;;1.20;;
29812;SDS011;16707;48.106;11.548;2023-07-22T09:42:43;1.35;;;1.17;;
29812;SDS011;16707;48.106;11.548;2023-07-22T09:45:11;1.80;;;1.20;;
29812;SDS011;16707;48.106;11.548;2023-07-22T09:47:39;2.70;;;1.20;;
29812;SDS011;16707;48.106;11.548;2023-07-22T09:50:11;1.63;;;1.15;;
29812;SDS011;16707;48.106;11.548;2023-07-22T09:52:42;1.80;;;1.55;;
29812;SDS011;16707;48.106;11.548;2023-07-22T09:55:11;1.92;;;1.52;;
29812;SDS011;16707;48.106;11.548;2023-07-22T09:57:39;1.60;;;1.27;;
29812;SDS011;16707;48.106;11.548;2023-07-22T10:00:10;1.70;;;1.30;;
29812;SDS011;16707;48.106;11.548;2023-07-22T10:02:39;4.15;;;1.67;;
29812;SDS011;16707;48.106;11.548;2023-07-22T10:05:08;1.65;;;1.40;;
29812;SDS011;16707;48.106;11.548;2023-07-22T10:07:44;1.98;;;1.42;;
29812;SDS011;16707;48.106;11.548;2023-07-22T10:10:14;1.88;;;1.40;;
29812;SDS011;16707;48.106;11.548;2023-07-22T10:12:43;2.75;;;1.38;;
29812;SDS011;16707;48.106;11.548;2023-07-22T10:15:11;2.07;;;1.37;;
29812;SDS011;16707;48.106;11.548;2023-07-22T10:17:39;2.10;;;1.50;;
29812;SDS011;16707;48.106;11.548;2023-07-22T10:20:08;2.00;;;1.42;;
29812;SDS011;16707;48.106;11.548;2023-07-22T10:22:42;2.55;;;1.60;;
29812;SDS011;16707;48.106;11.548;2023-07-22T10:25:10;2.53;;;1.70;;
29812;SDS011;16707;48.106;11.548;2023-07-22T10:27:40;1.77;;;1.55;;
29812;SDS011;16707;48.106;11.548;2023-07-22T10:30:08;2.50;;;1.38;;
29812;SDS011;16707;48.106;11.548;2023-07-22T10:32:38;3.90;;;1.45;;
29812;SDS011;16707;48.106;11.548;2023-07-22T10:35:08;1.40;;;1.30;;
29812;SDS011;16707;48.106;11.548;2023-07-22T10:37:36;2.33;;;1.63;;
29812;SDS011;16707;48.106;11.548;2023-07-22T10:40:24;1.92;;;1.20;;
29812;SDS011;16707;48.106;11.548;2023-07-22T10:42:54;1.58;;;1.20;;
29812;SDS011;16707;48.106;11.548;2023-07-22T10:45:24;2.40;;;1.40;;
29812;SDS011;16707;48.106;11.548;2023-07-22T10:48:06;3.40;;;1.52;;
29812;SDS011;16707;48.106;11.548;2023-07-22T10:50:38;4.22;;;1.52;;
29812;SDS011;16707;48.106;11.548;2023-07-22T10:53:10;1.58;;;1.20;;
29812;SDS011;16707;48.106;11.548;2023-07-22T10:58:57;1.48;;;1.35;;
29812;SDS011;16707;48.106;11.548;2023-07-22T11:01:36;1.55;;;1.25;;
29812;SDS011;16707;48.106;11.548;2023-07-22T11:04:14;2.30;;;1.38;;
29812;SDS011;16707;48.106;11.548;2023-07-22T11:06:55;1.77;;;1.27;;
29812;SDS011;16707;48.106;11.548;2023-07-22T11:12:14;2.03;;;1.50;;
29812;SDS011;16707;48.106;11.548;2023-07-22T11:14:47;2.03;;;1.50;;
29812;SDS011;16707;48.106;11.548;2023-07-22T11:17:16;2.65;;;1.50;;
29812;SDS011;16707;48.106;11.548;2023-07-22T11:19:44;1.73;;;1.30;;
29812;SDS011;16707;48.106;11.548;2023-07-22T11:22:11;2.05;;;1.30;;
29812;SDS011;16707;48.106;11.548;2023-07-22T11:24:39;3.42;;;1.52;;
29812;SDS011;16707;48.106;11.548;2023-07-22T11:27:07;2.25;;;1.30;;
29812;SDS011;16707;48.106;11.548;2023-07-22T11:29:36;1.83;;;1.40;;
29812;SDS011;16707;48.106;11.548;2023-07-22T11:32:03;3.13;;;1.63;;
29812;SDS011;16707;48.106;11.548;2023-07-22T11:34:31;3.25;;;1.35;;
29812;SDS011;16707;48.106;11.548;2023-07-22T11:36:58;2.92;;;1.40;;
29812;SDS011;16707;48.106;11.548;2023-07-22T11:39:26;1.90;;;1.30;;
29812;SDS011;16707;48.106;11.548;2023-07-22T11:41:56;3.30;;;2.22;;
29812;SDS011;16707;48.106;11.548;2023-07-22T11:44:28;2.50;;;1.58;;
29812;SDS011;16707;48.106;11.548;2023-07-22T11:46:57;2.70;;;1.27;;
29812;SDS011;16707;48.106;11.548;2023-07-22T11:49:26;2.10;;;1.48;;
29812;SDS011;16707;48.106;11.548;2023-07-22T11:51:55;2.45;;;1.48;;
29812;SDS011;16707;48.106;11.548;2023-07-22T11:54:24;3.33;;;1.30;;
29812;SDS011;16707;48.106;11.548;2023-07-22T11:56:52;1.75;;;1.50;;
29812;SDS011;16707;48.106;11.548;2023-07-22T11:59:32;2.53;;;1.60;;
29812;SDS011;16707;48.106;11.548;2023-07-22T12:02:03;1.73;;;1.15;;
29812;SDS011;16707;48.106;11.548;2023-07-22T12:04:31;2.85;;;1.50;;
29812;SDS011;16707;48.106;11.548;2023-07-22T12:06:59;2.10;;;1.25;;
29812;SDS011;16707;48.106;11.548;2023-07-22T12:09:26;2.05;;;1.40;;
29812;SDS011;16707;48.106;11.548;2023-07-22T12:11:57;2.20;;;1.88;;
29812;SDS011;16707;48.106;11.548;2023-07-22T12:14:33;3.17;;;1.60;;
29812;SDS011;16707;48.106;11.548;2023-07-22T12:17:01;2.70;;;1.58;;
29812;SDS011;16707;48.106;11.548;2023-07-22T12:19:34;2.20;;;1.65;;
29812;SDS011;16707;48.106;11.548;2023-07-22T12:22:02;1.85;;;1.35;;
29812;SDS011;16707;48.106;11.548;2023-07-22T12:24:29;2.92;;;1.50;;
29812;SDS011;16707;48.106;11.548;2023-07-22T12:26:56;2.38;;;1.30;;
29812;SDS011;16707;48.106;11.548;2023-07-22T12:29:23;2.22;;;1.40;;
29812;SDS011;16707;48.106;11.548;2023-07-22T12:31:50;2.30;;;1.38;;
29812;SDS011;16707;48.106;11.548;2023-07-22T12:34:19;2.00;;;1.52;;
29812;SDS011;16707;48.106;11.548;2023-07-22T12:36:46;2.00;;;1.52;;
29812;SDS011;16707;48.106;11.548;2023-07-22T12:39:14;2.67;;;1.52;;
29812;SDS011;16707;48.106;11.548;2023-07-22T12:41:41;3.03;;;1.80;;
29812;SDS011;16707;48.106;11.548;2023-07-22T12:44:08;2.17;;;1.70;;
29812;SDS011;16707;48.106;11.548;2023-07-22T12:46:35;2.95;;;1.80;;
29812;SDS011;16707;48.106;11.548;2023-07-22T12:49:02;2.38;;;1.60;;
29812;SDS011;16707;48.106;11.548;2023-07-22T12:51:38;2.88;;;1.25;;
29812;SDS011;16707;48.106;11.548;2023-07-22T12:54:05;2.30;;;1.48;;
29812;SDS011;16707;48.106;11.548;2023-07-22T12:56:32;2.10;;;1.48;;
29812;SDS011;16707;48.106;11.548;2023-07-22T12:58:59;2.80;;;1.50;;
29812;SDS011;16707;48.106;11.548;2023-07-22T13:01:26;1.58;;;1.45;;
29812;SDS011;16707;48.106;11.548;2023-07-22T13:03:53;3.38;;;1.60;;
29812;SDS011;16707;48.106;11.548;2023-07-22T13:06:20;2.75;;;1.80;;
29812;SDS011;16707;48.106;11.548;2023-07-22T13:08:49;1.52;;;1.40;;
29812;SDS011;16707;48.106;11.548;2023-07-22T13:11:15;2.58;;;1.63;;
29812;SDS011;16707;48.106;11.548;2023-07-22T13:13:42;1.98;;;1.52;;
29812;SDS011;16707;48.106;11.548;2023-07-22T13:16:09;1.70;;;1.40;;
29812;SDS011;16707;48.106;11.548;2023-07-22T13:18:36;3.72;;;1.73;;
29812;SDS011;16707;48.106;11.548;2023-07-22T13:21:03;3.40;;;1.60;;
29812;SDS011;16707;48.106;11.548;2023-07-22T13:23:30;1.88;;;1.50;;
29812;SDS011;16707;48.106;11.548;2023-07-22T13:25:58;2.30;;;1.45;;
29812;SDS011;16707;48.106;11.548;2023-07-22T13:28:25;2.22;;;1.45;;
29812;SDS011;16707;48.106;11.548;2023-07-22T13:30:52;1.65;;;1.48;;
29812;SDS011;16707;48.106;11.548;2023-07-22T13:33:19;1.85;;;1.30;;
29812;SDS011;16707;48.106;11.548;2023-07-22T13:35:46;3.08;;;1.70;;
29812;SDS011;16707;48.106;11.548;2023-07-22T13:38:15;2.10;;;1.65;;
29812;SDS011;16707;48.106;11.548;2023-07-22T13:40:42;2.40;;;1.80;;
29812;SDS011;16707;48.106;11.548;2023-07-22T13:43:11;1.92;;;1.60;;
29812;SDS011;16707;48.106;11.548;2023-07-22T13:45:38;1.92;;;1.63;;
29812;SDS011;16707;48.106;11.548;2023-07-22T13:48:05;1.60;;;1.20;;
29812;SDS011;16707;48.106;11.548;2023-07-22T13:50:32;2.45;;;1.60;;
29812;SDS011;16707;48.106;11.548;2023-07-22T13:52:59;2.47;;;1.65;;
29812;SDS011;16707;48.106;11.548;2023-07-22T13:55:26;2.30;;;1.45;;
29812;SDS011;16707;48.106;11.548;2023-07-22T13:57:53;2.20;;;1.58;;
29812;SDS011;16707;48.106;11.548;2023-07-22T14:00:21;3.13;;;1.70;;
29812;SDS011;16707;48.106;11.548;2023-07-22T14:02:48;3.15;;;1.48;;
29812;SDS011;16707;48.106;11.548;2023-07-22T14:05:15;2.10;;;1.70;;
29812;SDS011;16707;48.106;11.548;2023-07-22T14:07:42;2.15;;;1.45;;
29812;SDS011;16707;48.106;11.548;2023-07-22T14:10:09;2.10;;;1.40;;
29812;SDS011;16707;48.106;11.548;2023-07-22T14:12:36;2.13;;;1.58;;
29812;SDS011;16707;48.106;11.548;2023-07-22T14:15:03;2.55;;;1.58;;
29812;SDS011;16707;48.106;11.548;2023-07-22T14:17:33;5.18;;;2.03;;
29812;SDS011;16707;48.106;11.548;2023-07-22T14:20:01;2.95;;;1.40;;
29812;SDS011;16707;48.106;11.548;2023-07-22T14:22:30;1.52;;;1.42;;
29812;SDS011;16707;48.106;11.548;2023-07-22T14:24:57;3.15;;;1.73;;
29812;SDS011;16707;48.106;11.548;2023-07-22T14:27:24;2.08;;;1.60;;
29812;SDS011;16707;48.106;11.548;2023-07-22T14:29:50;2.55;;;1.52;;
29812;SDS011;16707;48.106;11.548;2023-07-22T14:32:17;2.58;;;1.70;;
29812;SDS011;16707;48.106;11.548;2023-07-22T14:34:46;1.95;;;1.38;;
29812;SDS011;16707;48.106;11.548;2023-07-22T14:37:13;2.28;;;1.85;;
29812;SDS011;16707;48.106;11.548;2023-07-22T14:39:40;1.88;;;1.38;;
29812;SDS011;16707;48.106;11.548;2023-07-22T14:42:07;1.80;;;1.40;;
29812;SDS011;16707;48.106;11.548;2023-07-22T14:44:34;3.88;;;2.00;;
29812;SDS011;16707;48.106;11.548;2023-07-22T14:47:01;2.47;;;1.70;;